Flight Track Log - Related Links

Times and Time Zones

All times are in EST time to prevent confusion due to time zone crossing. See the EJA396 flight status page for this flight to view local times or setup timezone preferences in your user account.

Time Position Orientation Groundspeed Altitude Reporting Facility
EST Latitude Longitude Course Direction KTS MPH feet Rate Location/Type
Thu 12:11:36 PM 37.6333 -122.3667 360° North 168 193 700  Level Northern Cal TRACON
Thu 12:12:36 PM 37.7000 -122.3667 360° North 257 296 4,600 3,789 Climbing Northern Cal TRACON
Thu 12:13:11 PM 37.7256 -122.4019 312° West 270 311 6,700 2,750 Climbing Oakland Center
Thu 12:14:12 PM 37.6767 -122.4517 219° Southwest 266 306 9,000 2,000 Climbing Oakland Center
Thu 12:15:14 PM 37.5978 -122.4517 180° South 282 325 10,800 976 Climbing Oakland Center
Thu 12:16:15 PM 37.5056 -122.4503 179° South 329 379 11,000 49 Climbing Oakland Center
Thu 12:17:16 PM 37.4108 -122.4486 179° South 339 390 10,900  Descending Oakland Center
Thu 12:18:18 PM 37.3144 -122.4475 179° South 345 397 11,000 49 Climbing Oakland Center
Thu 12:19:19 PM 37.2194 -122.4467 180° South 343 395 11,000 -244 Level Oakland Center
Thu 12:20:21 PM 37.1267 -122.4442 179° South 334 384 10,500 -878 Descending Oakland Center
Thu 12:21:22 PM 37.0597 -122.3914 148° Southeast 284 327 9,200 -1,230 Descending Oakland Center
Thu 12:22:23 PM 36.9878 -122.3161 140° Southeast 278 320 8,000 -1,317 Descending Oakland Center
Thu 12:23:25 PM 36.9319 -122.2594 141° Southeast 262 302 6,500 -1,610 Descending Oakland Center
Thu 12:24:26 PM 36.8733 -122.2014 142° Southeast 266 306 4,700 -1,610 Descending Oakland Center
Thu 12:25:28 PM 36.8172 -122.1453 141° Southeast 264 304 3,200 -878 Descending Oakland Center
Thu 12:26:29 PM 36.7636 -122.0900 140° Southeast 257 296 2,900 -148 Descending Oakland Center
Thu 12:27:30 PM 36.7106 -122.0364 141° Southeast 252 290 2,900 -477 Level Oakland Center
Thu 12:29:00 PM 36.6333 -121.9667 144° Southeast 186 214 1,700 -640 Descending Northern Cal TRACON
Thu 12:30:00 PM 36.6167 -121.9167 113° Southeast 167 192 1,300 -550 Descending Northern Cal TRACON
Thu 12:31:00 PM 36.6000 -121.8833 122° Southeast 126 145 600 -700 Descending Northern Cal TRACON

Login

Don't have an account? Register now (free) for customized features, flight alerts, and more!